createdAt,value
2019-04-29T05:38:04.218Z,10.90
2019-04-29T05:40:44.011Z,10.90
2019-04-29T05:43:15.357Z,11.00
2019-04-29T05:46:07.300Z,11.00
2019-04-29T05:48:35.791Z,10.90
2019-04-29T05:51:27.288Z,10.90
2019-04-29T05:53:59.488Z,10.90
2019-04-29T05:56:28.855Z,10.90
2019-04-29T05:58:58.339Z,10.90
2019-04-29T06:01:29.932Z,10.80
2019-04-29T06:03:59.378Z,10.80
2019-04-29T06:06:29.875Z,10.80
2019-04-29T06:08:59.376Z,10.80
2019-04-29T06:11:29.016Z,10.80
2019-04-29T06:13:58.482Z,10.80
2019-04-29T06:16:28.406Z,10.90
2019-04-29T06:19:00.172Z,10.90
2019-04-29T06:21:29.138Z,10.90
2019-04-29T06:23:59.370Z,10.90
2019-04-29T06:26:30.144Z,10.90
2019-04-29T06:28:59.736Z,10.90
2019-04-29T06:31:29.376Z,10.90
2019-04-29T06:34:00.626Z,10.90
2019-04-29T06:36:30.511Z,10.90
2019-04-29T06:38:59.836Z,10.90
2019-04-29T06:41:29.610Z,10.90
2019-04-29T06:44:00.669Z,10.90
2019-04-29T06:46:31.602Z,10.80
2019-04-29T06:49:10.077Z,10.80
2019-04-29T06:51:32.382Z,10.80
2019-04-29T06:54:02.059Z,10.90
2019-04-29T06:56:31.702Z,10.90
2019-04-29T06:59:01.044Z,10.90
2019-04-29T07:01:33.111Z,11.00
2019-04-29T07:04:02.234Z,11.00
2019-04-29T07:06:31.914Z,11.00
2019-04-29T07:09:01.464Z,11.00
2019-04-29T07:11:36.372Z,11.00
2019-04-29T07:14:02.975Z,11.00
2019-04-29T07:16:32.944Z,11.00
2019-04-29T07:19:02.509Z,12.00
2019-04-29T07:21:32.196Z,11.00
2019-04-29T07:24:01.896Z,11.10
2019-04-29T07:26:31.784Z,11.10
2019-04-29T07:29:01.581Z,11.10
2019-04-29T07:31:33.178Z,11.10
2019-04-29T07:34:02.646Z,11.10
2019-04-29T07:36:32.736Z,11.20
2019-04-29T07:39:02.201Z,11.10
2019-04-29T07:41:33.189Z,11.10
2019-04-29T07:44:03.095Z,11.20
2019-04-29T07:46:55.126Z,11.20
2019-04-29T07:49:07.085Z,11.20
2019-04-29T07:51:40.822Z,11.30
2019-04-29T07:54:11.035Z,11.30
2019-04-29T07:56:43.505Z,11.30
2019-04-29T07:59:13.337Z,11.40
2019-04-29T08:01:43.345Z,11.40
2019-04-29T08:04:13.122Z,11.40
2019-04-29T08:06:44.429Z,11.40
2019-04-29T08:09:14.397Z,11.40
2019-04-29T08:11:44.114Z,11.40
2019-04-29T08:14:13.919Z,11.40
2019-04-29T08:16:43.646Z,11.40
2019-04-29T08:19:13.171Z,11.40
2019-04-29T08:21:45.605Z,11.50
2019-04-29T08:24:15.933Z,11.50
2019-04-29T08:26:47.595Z,11.50
2019-04-29T08:29:17.250Z,11.60
2019-04-29T08:31:47.303Z,11.60
2019-04-29T08:34:18.760Z,11.60
2019-04-29T08:36:59.046Z,11.60
2019-04-29T08:39:29.780Z,11.60
2019-04-29T08:42:03.793Z,11.60
2019-04-29T08:44:54.780Z,11.60
2019-04-29T08:47:31.636Z,11.70
2019-04-29T08:49:59.574Z,11.70
2019-04-29T08:52:29.221Z,11.70
2019-04-29T08:54:58.608Z,11.70
2019-04-29T08:57:31.849Z,11.80
2019-04-29T08:59:59.278Z,11.80
2019-04-29T09:02:34.948Z,11.80
2019-04-29T09:05:01.226Z,11.90
2019-04-29T09:07:30.859Z,11.90
2019-04-29T09:10:02.052Z,11.90
2019-04-29T09:12:31.859Z,11.90
2019-04-29T09:15:02.105Z,11.90
2019-04-29T09:17:31.530Z,11.90
2019-04-29T09:20:01.015Z,11.90
2019-04-29T09:22:32.256Z,11.90
2019-04-29T09:25:21.382Z,11.90
2019-04-29T09:27:51.431Z,11.90
2019-04-29T09:30:21.299Z,11.90
2019-04-29T09:32:50.888Z,11.90
2019-04-29T09:35:20.476Z,11.90
2019-04-29T09:37:53.740Z,11.90
2019-04-29T09:40:25.301Z,11.90
2019-04-29T09:43:15.869Z,11.90
2019-04-29T09:46:00.283Z,11.90
2019-04-29T09:48:29.970Z,11.90
2019-04-29T09:50:59.499Z,11.90
2019-04-29T09:53:28.954Z,11.90
2019-04-29T09:55:58.819Z,11.90
2019-04-29T09:58:28.247Z,11.90
2019-04-29T10:01:19.127Z,11.90
2019-04-29T10:03:53.843Z,11.90
2019-04-29T10:06:27.824Z,12.00
2019-04-29T10:08:57.478Z,12.00
2019-04-29T10:11:27.006Z,12.10
2019-04-29T10:13:56.917Z,12.20
2019-04-29T10:16:31.645Z,12.30
2019-04-29T10:19:05.228Z,12.40
2019-04-29T10:21:33.147Z,12.50
2019-04-29T10:24:02.760Z,12.50
2019-04-29T10:26:34.437Z,12.50
2019-04-29T10:29:05.480Z,12.50
2019-04-29T10:31:35.141Z,12.50
2019-04-29T10:34:06.222Z,12.40
2019-04-29T10:36:35.617Z,12.40
2019-04-29T10:39:09.413Z,12.40
2019-04-29T10:41:43.251Z,12.40
2019-04-29T10:44:32.595Z,12.40
2019-04-29T10:47:08.921Z,12.40
2019-04-29T10:49:42.739Z,12.30
2019-04-29T10:52:12.281Z,12.40
2019-04-29T10:54:42.643Z,12.40
2019-04-29T10:57:14.714Z,12.40
2019-04-29T10:59:46.200Z,12.40
2019-04-29T11:02:17.333Z,12.40
2019-04-29T11:04:48.401Z,12.50
2019-04-29T11:07:28.365Z,12.50
2019-04-29T11:09:59.546Z,12.50
2019-04-29T11:12:29.139Z,12.50
2019-04-29T11:15:01.394Z,12.50
2019-04-29T11:17:29.694Z,12.50
2019-04-29T11:19:59.312Z,12.50
2019-04-29T11:22:33.875Z,12.50
2019-04-29T11:25:12.242Z,12.50
2019-04-29T11:27:46.235Z,12.50
2019-04-29T11:30:17.259Z,12.60
2019-04-29T11:32:48.602Z,12.70
2019-04-29T11:35:19.801Z,12.70
2019-04-29T11:37:50.082Z,12.60
2019-04-29T11:40:26.031Z,12.70
2019-04-29T11:42:52.581Z,12.70
2019-04-29T11:45:22.444Z,12.70
2019-04-29T11:47:52.349Z,12.70
2019-04-29T11:50:26.677Z,12.70
2019-04-29T11:52:55.663Z,12.70
2019-04-29T11:55:25.271Z,12.80
2019-04-29T11:57:59.123Z,12.80
2019-04-29T12:00:47.991Z,12.70
2019-04-29T12:03:19.921Z,12.70
2019-04-29T12:05:51.211Z,12.70
2019-04-29T12:08:21.446Z,12.80
2019-04-29T12:11:06.169Z,12.70
2019-04-29T12:13:30.106Z,12.70
2019-04-29T12:16:01.322Z,12.70
2019-04-29T12:18:42.230Z,12.70
2019-04-29T12:21:19.664Z,12.70
2019-04-29T12:23:52.121Z,12.70
2019-04-29T12:26:20.750Z,12.70
2019-04-29T12:28:50.174Z,12.70
2019-04-29T12:31:31.564Z,12.70
2019-04-29T12:34:19.401Z,12.70
2019-04-29T12:36:55.985Z,12.70
2019-04-29T12:39:44.864Z,12.70
2019-04-29T12:42:29.040Z,12.70
2019-04-29T12:45:02.894Z,12.70
2019-04-29T12:47:34.051Z,12.60
2019-04-29T12:50:04.481Z,12.60
2019-04-29T12:52:34.060Z,12.60
2019-04-29T12:55:19.219Z,12.60
2019-04-29T12:57:35.402Z,12.70
2019-04-29T13:00:08.859Z,12.70
2019-04-29T13:03:00.152Z,12.80
2019-04-29T13:05:31.799Z,12.70
2019-04-29T13:08:03.242Z,12.70
2019-04-29T13:10:42.549Z,12.70
2019-04-29T13:13:11.545Z,12.80
2019-04-29T13:15:43.952Z,12.80
2019-04-29T13:18:23.103Z,12.80
2019-04-29T13:20:50.769Z,12.80
2019-04-29T13:23:33.679Z,12.90
2019-04-29T13:25:51.064Z,12.90
2019-04-29T13:28:29.930Z,12.90
2019-04-29T13:30:56.834Z,12.90
2019-04-29T13:33:22.982Z,12.90
2019-04-29T13:35:53.974Z,12.80
2019-04-29T13:38:23.583Z,12.90
2019-04-29T13:41:11.362Z,12.90
2019-04-29T13:43:25.906Z,12.90
2019-04-29T13:46:05.088Z,12.90
2019-04-29T13:48:54.722Z,12.80
2019-04-29T13:51:09.034Z,12.80
2019-04-29T13:53:38.818Z,12.80
2019-04-29T13:56:11.821Z,12.80
2019-04-29T13:58:39.441Z,12.80
2019-04-29T14:01:33.001Z,12.80
2019-04-29T14:04:06.140Z,12.80
2019-04-29T14:06:37.344Z,12.80
2019-04-29T14:09:08.684Z,12.80
2019-04-29T14:11:38.630Z,12.80
2019-04-29T14:14:08.092Z,12.80
2019-04-29T14:16:38.135Z,12.80
2019-04-29T14:19:08.762Z,12.90
2019-04-29T14:21:38.636Z,12.80
2019-04-29T14:24:08.859Z,12.90
2019-04-29T14:26:42.025Z,12.80
2019-04-29T14:29:11.073Z,12.80
2019-04-29T14:31:41.894Z,12.90
2019-04-29T14:34:16.474Z,12.90
2019-04-29T14:36:44.337Z,13.00
2019-04-29T14:39:18.929Z,13.20
2019-04-29T14:41:46.661Z,13.30
2019-04-29T14:44:17.806Z,13.40
2019-04-29T14:46:56.196Z,13.40
2019-04-29T14:49:30.714Z,13.40
2019-04-29T14:52:03.258Z,13.40
2019-04-29T14:54:31.362Z,13.40
2019-04-29T14:57:01.114Z,13.40
2019-04-29T14:59:31.197Z,13.40
2019-04-29T15:02:16.224Z,13.40
2019-04-29T15:04:41.372Z,13.50
2019-04-29T15:07:11.241Z,13.60
2019-04-29T15:09:46.834Z,13.70
2019-04-29T15:12:24.881Z,13.70
2019-04-29T15:15:05.302Z,13.60
2019-04-29T15:17:40.337Z,13.50
2019-04-29T15:20:30.244Z,13.40
2019-04-29T15:22:58.972Z,13.40
2019-04-29T15:25:28.683Z,13.30
2019-04-29T15:27:58.226Z,13.20
2019-04-29T15:30:31.683Z,13.20
2019-04-29T15:32:59.767Z,13.20
2019-04-29T15:35:29.537Z,13.20
2019-04-29T15:37:59.258Z,13.20
2019-04-29T15:40:29.002Z,13.20
2019-04-29T15:42:58.809Z,13.20
2019-04-29T15:45:32.439Z,13.20
2019-04-29T15:47:59.851Z,13.30
2019-04-29T15:50:37.112Z,13.30
2019-04-29T15:53:08.088Z,13.30
2019-04-29T15:55:39.492Z,13.30
2019-04-29T15:58:09.357Z,13.30
2019-04-29T16:00:40.433Z,13.30
2019-04-29T16:06:04.361Z,13.30
2019-04-29T16:08:35.398Z,13.20
2019-04-29T16:11:23.115Z,13.10
2019-04-29T16:14:08.399Z,13.10
2019-04-29T16:16:24.083Z,13.10
2019-04-29T16:18:53.630Z,13.00
2019-04-29T16:21:23.317Z,13.00
2019-04-29T16:23:57.523Z,13.00
2019-04-29T16:28:55.312Z,13.10
2019-04-29T16:31:25.612Z,13.10
2019-04-29T16:33:55.827Z,13.00
2019-04-29T16:36:26.518Z,13.10
2019-04-29T16:38:56.048Z,13.10
2019-04-29T16:41:27.521Z,13.10
2019-04-29T16:43:57.786Z,13.10
2019-04-29T16:46:37.444Z,13.10
2019-04-29T16:49:04.229Z,13.10
2019-04-29T16:51:33.815Z,13.10
2019-04-29T16:54:03.346Z,13.00
2019-04-29T16:56:33.444Z,13.10
2019-04-29T16:59:09.356Z,13.10
2019-04-29T17:01:34.489Z,13.10
2019-04-29T17:04:05.275Z,12.90
2019-04-29T17:06:41.533Z,12.90
2019-04-29T17:09:15.062Z,12.70
2019-04-29T17:11:50.542Z,12.60
2019-04-29T17:14:18.639Z,12.50
2019-04-29T17:16:48.337Z,12.50
2019-04-29T17:19:18.152Z,12.40
2019-04-29T17:21:47.798Z,12.40
2019-04-29T17:24:17.724Z,12.40
2019-04-29T17:26:52.165Z,12.30
2019-04-29T17:29:39.241Z,12.30
2019-04-29T17:32:08.589Z,12.30
2019-04-29T17:34:58.327Z,12.30
2019-04-29T17:35:15.456Z,13.30
2019-04-29T17:35:19.118Z,13.10
2019-04-29T17:37:11.354Z,12.30
2019-04-29T17:39:41.023Z,12.30
2019-04-29T17:42:10.660Z,12.30
2019-04-29T17:44:44.866Z,12.30
2019-04-29T17:47:16.302Z,12.30
2019-04-29T17:49:47.683Z,12.40
2019-04-29T17:52:22.218Z,12.50
2019-04-29T17:54:57.182Z,12.50
2019-04-29T17:57:31.447Z,12.40
2019-04-29T18:00:05.135Z,12.40
2019-04-29T18:02:40.410Z,12.30
2019-04-29T18:05:17.857Z,12.30
2019-04-29T18:08:02.972Z,12.30
2019-04-29T18:10:40.029Z,12.40
2019-04-29T18:13:08.279Z,12.30
2019-04-29T18:15:51.673Z,12.30
2019-04-29T18:18:17.412Z,12.30
2019-04-29T18:20:48.317Z,12.30
2019-04-29T18:23:22.217Z,12.30
2019-04-29T18:26:08.685Z,12.30
2019-04-29T18:28:50.657Z,12.30
2019-04-29T18:31:26.456Z,12.30
2019-04-29T18:33:58.173Z,12.30
2019-04-29T18:36:26.751Z,12.30
2019-04-29T18:39:00.404Z,12.30
2019-04-29T18:41:32.051Z,12.30
2019-04-29T18:44:03.067Z,12.20
2019-04-29T18:46:35.144Z,12.20
2019-04-29T18:49:06.622Z,12.10
2019-04-29T18:51:36.410Z,12.10
2019-04-29T18:54:06.232Z,12.10
2019-04-29T18:56:36.633Z,12.10
2019-04-29T18:59:08.755Z,12.10
2019-04-29T19:01:38.527Z,12.10
2019-04-29T19:04:16.757Z,12.10
2019-04-29T19:06:44.230Z,12.10
2019-04-29T19:09:19.810Z,12.10
2019-04-29T19:11:46.277Z,12.10
2019-04-29T19:14:15.881Z,12.10
2019-04-29T19:16:45.967Z,12.10
2019-04-29T19:19:15.601Z,12.10
2019-04-29T19:21:45.503Z,12.00
2019-04-29T19:24:18.008Z,12.00
2019-04-29T19:26:47.902Z,12.00
2019-04-29T19:29:21.119Z,11.90
2019-04-29T19:31:50.738Z,11.90
2019-04-29T19:34:20.611Z,11.90
2019-04-29T19:36:50.759Z,11.90
2019-04-29T19:39:23.372Z,11.90
2019-04-29T19:41:53.326Z,11.90
2019-04-29T19:44:26.483Z,11.90
2019-04-29T19:46:56.936Z,11.90
2019-04-29T19:49:25.848Z,11.90
2019-04-29T19:51:55.601Z,11.90
2019-04-29T19:54:28.424Z,11.90
2019-04-29T19:57:03.428Z,11.90
2019-04-29T19:59:28.719Z,11.90
2019-04-29T20:02:05.558Z,11.90
2019-04-29T20:04:32.000Z,11.90
2019-04-29T20:07:06.280Z,11.90
2019-04-29T20:09:33.719Z,11.90
2019-04-29T20:12:11.423Z,11.90
2019-04-29T20:14:37.598Z,11.90
2019-04-29T20:17:12.837Z,11.90
2019-04-29T20:19:55.313Z,11.90
2019-04-29T20:22:18.596Z,11.90
2019-04-29T20:24:50.929Z,11.90
2019-04-29T20:27:21.296Z,11.80
2019-04-29T20:29:51.379Z,11.80
2019-04-29T20:32:22.401Z,11.80
2019-04-29T20:34:52.816Z,11.70
2019-04-29T20:37:26.150Z,11.70
2019-04-29T20:39:57.273Z,11.70
2019-04-29T20:42:27.158Z,11.70
2019-04-29T20:44:56.989Z,11.70
2019-04-29T20:47:37.655Z,11.70
2019-04-29T20:49:58.548Z,11.80
2019-04-29T20:52:29.898Z,11.80
2019-04-29T20:55:02.423Z,11.80
2019-04-29T20:57:31.489Z,11.80
2019-04-29T21:00:01.099Z,11.80
2019-04-29T21:02:34.487Z,11.80
2019-04-29T21:05:02.118Z,11.80
2019-04-29T21:07:32.372Z,11.80
2019-04-29T21:10:06.723Z,11.80
2019-04-29T21:12:38.143Z,11.80
2019-04-29T21:15:14.700Z,11.80
2019-04-29T21:17:41.956Z,11.80
2019-04-29T21:20:12.859Z,11.80
2019-04-29T21:22:42.989Z,11.80
2019-04-29T21:25:12.647Z,11.70
2019-04-29T21:27:42.292Z,11.70
2019-04-29T21:30:11.836Z,11.70
2019-04-29T21:32:41.396Z,11.70
2019-04-29T21:35:17.058Z,11.70
2019-04-29T21:38:01.780Z,11.70
2019-04-29T21:40:35.927Z,11.70
2019-04-29T21:43:13.738Z,11.70
2019-04-29T21:45:39.909Z,11.70
2019-04-29T21:48:09.382Z,11.70
2019-04-29T21:50:38.862Z,11.70
2019-04-29T21:53:09.460Z,11.60
2019-04-29T21:55:38.876Z,11.60
2019-04-29T21:58:08.395Z,11.60
2019-04-29T22:00:38.137Z,11.60
2019-04-29T22:03:09.361Z,11.60
2019-04-29T22:05:38.933Z,11.50
2019-04-29T22:08:08.398Z,11.50
2019-04-29T22:10:37.893Z,11.50
2019-04-29T22:13:07.896Z,11.50
2019-04-29T22:15:41.071Z,11.50
2019-04-29T22:18:13.916Z,11.50
2019-04-29T22:20:42.300Z,11.60
2019-04-29T22:23:13.441Z,11.60
2019-04-29T22:25:45.661Z,11.60
2019-04-29T22:28:16.039Z,11.60
2019-04-29T22:30:45.271Z,11.60
2019-04-29T22:33:15.362Z,11.60
2019-04-29T22:35:46.211Z,11.60
2019-04-29T22:38:16.692Z,11.60
2019-04-29T22:40:47.172Z,11.60
2019-04-29T22:43:25.345Z,11.60
2019-04-29T22:45:54.964Z,11.60
2019-04-29T22:48:25.636Z,11.60
2019-04-29T22:50:55.654Z,11.60
2019-04-29T22:53:26.216Z,11.60
2019-04-29T22:55:56.526Z,11.60
2019-04-29T22:58:27.313Z,11.60
2019-04-29T23:00:56.905Z,11.60
2019-04-29T23:03:26.364Z,11.60
2019-04-29T23:06:00.126Z,11.60
2019-04-29T23:08:29.704Z,11.60
2019-04-29T23:10:59.856Z,11.60
2019-04-29T23:13:31.165Z,11.60
2019-04-29T23:16:02.261Z,11.60
2019-04-29T23:18:38.513Z,11.60
2019-04-29T23:21:05.285Z,11.60
2019-04-29T23:23:42.517Z,11.60
2019-04-29T23:26:12.073Z,11.60
2019-04-29T23:28:41.461Z,11.60
2019-04-29T23:31:11.114Z,11.60
2019-04-29T23:33:40.707Z,11.60
2019-04-29T23:36:14.250Z,11.60
2019-04-29T23:38:42.759Z,11.60
2019-04-29T23:41:12.522Z,11.60
2019-04-29T23:43:41.975Z,11.60
2019-04-29T23:46:11.535Z,11.60
2019-04-29T23:48:41.840Z,11.60
2019-04-29T23:51:11.362Z,11.60
2019-04-29T23:53:41.169Z,11.60
2019-04-29T23:56:10.672Z,11.50
2019-04-29T23:58:50.267Z,11.50
